createdAt,value
2019-01-04T00:00:45.994Z,68.63
2019-01-04T00:02:50.071Z,75.97
2019-01-04T00:04:53.831Z,79.93
2019-01-04T00:06:57.570Z,60.37
2019-01-04T00:09:01.314Z,68.90
2019-01-04T00:11:05.136Z,64.97
2019-01-04T00:13:08.874Z,72.23
2019-01-04T00:15:13.039Z,61.57
2019-01-04T00:17:17.344Z,70.50
2019-01-04T00:19:21.194Z,58.77
2019-01-04T00:21:25.258Z,63.37
2019-01-04T00:23:29.078Z,70.37
2019-01-04T00:25:33.058Z,55.33
2019-01-04T00:27:36.886Z,73.50
2019-01-04T00:29:40.674Z,71.00
2019-01-04T00:31:44.516Z,69.27
2019-01-04T00:33:48.439Z,61.13
2019-01-04T00:35:52.335Z,75.57
2019-01-04T00:37:56.254Z,60.63
2019-01-04T00:40:00.087Z,67.40
2019-01-04T00:42:04.205Z,78.93
2019-01-04T00:44:08.029Z,72.43
2019-01-04T00:46:12.214Z,68.17
2019-01-04T00:48:16.211Z,66.30
2019-01-04T00:50:20.124Z,67.07
2019-01-04T00:52:24.283Z,78.90
2019-01-04T00:54:28.174Z,84.33
2019-01-04T00:57:09.559Z,64.43
2019-01-04T01:00:15.657Z,61.60
2019-01-04T01:02:50.158Z,71.03
2019-01-04T01:05:43.555Z,73.73
2019-01-04T01:08:11.210Z,79.40
2019-01-04T01:10:42.459Z,74.37
2019-01-04T01:13:24.076Z,60.50
2019-01-04T01:16:10.311Z,57.30
2019-01-04T01:18:39.277Z,72.30
2019-01-04T01:21:27.533Z,66.13
2019-01-04T01:24:03.584Z,87.40
2019-01-04T01:27:02.675Z,82.30
2019-01-04T01:29:43.826Z,80.63
2019-01-04T01:31:58.407Z,89.73
2019-01-04T01:34:54.427Z,81.30
2019-01-04T01:37:34.855Z,96.27
2019-01-04T01:40:25.711Z,93.03
2019-01-04T01:42:57.196Z,88.67
2019-01-04T01:45:26.995Z,86.80
2019-01-04T01:47:45.075Z,91.37
2019-01-04T01:50:25.942Z,83.23
2019-01-04T01:52:42.567Z,88.50
2019-01-04T01:54:46.568Z,96.13
2019-01-04T01:56:51.692Z,87.47
2019-01-04T01:58:55.763Z,94.90
2019-01-04T02:00:59.515Z,88.30
2019-01-04T02:03:03.366Z,71.73
2019-01-04T02:05:07.196Z,70.87
2019-01-04T02:07:11.011Z,76.90
2019-01-04T02:09:14.785Z,68.13
2019-01-04T02:11:18.602Z,74.43
2019-01-04T02:13:22.357Z,87.30
2019-01-04T02:15:26.470Z,86.07
2019-01-04T02:17:30.262Z,100.57
2019-01-04T02:19:34.253Z,82.13
2019-01-04T02:21:38.053Z,80.33
2019-01-04T02:23:42.047Z,93.73
2019-01-04T02:25:45.806Z,85.17
2019-01-04T02:27:49.802Z,85.13
2019-01-04T02:29:53.559Z,86.10
2019-01-04T02:31:57.915Z,101.67
2019-01-04T02:34:01.939Z,104.17
2019-01-04T02:36:05.690Z,111.90
2019-01-04T02:38:09.430Z,95.93
2019-01-04T02:40:13.203Z,99.57
2019-01-04T02:42:16.968Z,116.23
2019-01-04T02:44:20.714Z,113.43
2019-01-04T02:46:24.463Z,115.33
2019-01-04T02:48:28.488Z,108.63
2019-01-04T02:50:32.274Z,106.57
2019-01-04T02:52:36.316Z,109.13
2019-01-04T02:54:40.079Z,105.27
2019-01-04T02:56:43.933Z,117.27
2019-01-04T02:58:47.692Z,119.97
2019-01-04T03:00:51.635Z,114.37
2019-01-04T03:02:55.382Z,119.60
2019-01-04T03:04:59.206Z,109.87
2019-01-04T03:07:03.048Z,125.67
2019-01-04T03:09:07.319Z,115.37
2019-01-04T03:11:11.167Z,123.03
2019-01-04T03:13:14.906Z,131.07
2019-01-04T03:15:18.887Z,120.23
2019-01-04T03:17:22.887Z,137.20
2019-01-04T03:19:26.987Z,138.33
2019-01-04T03:21:30.811Z,139.90
2019-01-04T03:23:34.572Z,146.47
2019-01-04T03:25:38.579Z,157.63
2019-01-04T03:27:42.335Z,132.27
2019-01-04T03:29:46.349Z,136.53
2019-01-04T03:31:50.592Z,139.90
2019-01-04T03:33:54.697Z,126.93
2019-01-04T03:35:58.518Z,116.67
2019-01-04T03:38:02.535Z,121.30
2019-01-04T03:40:06.810Z,117.37
2019-01-04T03:42:10.734Z,113.07
2019-01-04T03:44:15.007Z,115.67
2019-01-04T03:46:18.771Z,119.57
2019-01-04T03:48:22.530Z,108.63
2019-01-04T03:50:26.457Z,115.77
2019-01-04T03:52:30.249Z,122.87
2019-01-04T03:54:34.027Z,107.30
2019-01-04T03:56:37.792Z,103.10
2019-01-04T03:58:41.421Z,102.47
2019-01-04T04:00:45.632Z,96.60
2019-01-04T04:02:49.402Z,103.87
2019-01-04T04:04:53.218Z,103.77
2019-01-04T04:06:56.967Z,98.97
2019-01-04T04:09:00.735Z,98.67
2019-01-04T04:11:04.487Z,102.97
2019-01-04T04:13:08.248Z,107.77
2019-01-04T04:15:12.073Z,101.13
2019-01-04T04:17:18.578Z,101.80
2019-01-04T04:19:22.342Z,100.77
2019-01-04T04:21:26.117Z,102.73
2019-01-04T04:23:29.906Z,91.43
2019-01-04T04:25:33.727Z,99.60
2019-01-04T04:27:37.467Z,85.07
2019-01-04T04:29:41.207Z,92.57
2019-01-04T04:31:45.036Z,105.07
2019-01-04T04:33:49.025Z,90.60
2019-01-04T04:35:52.775Z,89.13
2019-01-04T04:37:56.522Z,100.10
2019-01-04T04:40:00.534Z,87.30
2019-01-04T04:42:04.271Z,99.00
2019-01-04T04:44:08.266Z,84.97
2019-01-04T04:46:12.015Z,75.70
2019-01-04T04:48:15.787Z,78.10
2019-01-04T04:50:19.551Z,67.20
2019-01-04T04:52:23.309Z,83.47
2019-01-04T04:54:27.097Z,81.53
2019-01-04T04:56:30.852Z,69.80
2019-01-04T04:58:34.599Z,74.43
2019-01-04T05:00:38.413Z,80.47
2019-01-04T05:02:42.159Z,67.97
2019-01-04T05:04:45.934Z,86.13
2019-01-04T05:06:49.684Z,81.40
2019-01-04T05:08:53.678Z,71.50
2019-01-04T05:10:57.670Z,63.03
2019-01-04T05:13:01.739Z,65.97
2019-01-04T05:15:05.743Z,65.30
2019-01-04T05:17:09.490Z,61.53
2019-01-04T05:19:13.246Z,57.93
2019-01-04T05:21:17.657Z,65.73
2019-01-04T05:23:21.434Z,56.23
2019-01-04T05:25:25.438Z,56.23
2019-01-04T05:27:29.216Z,56.77
2019-01-04T05:29:33.218Z,54.90
2019-01-04T05:31:36.985Z,64.83
2019-01-04T05:33:40.718Z,63.83
2019-01-04T05:35:44.470Z,51.90
2019-01-04T05:37:48.267Z,45.70
2019-01-04T05:39:52.022Z,66.20
2019-01-04T05:41:55.779Z,44.10
2019-01-04T05:43:59.526Z,50.80
2019-01-04T05:46:03.287Z,46.93
2019-01-04T05:48:07.604Z,45.80
2019-01-04T05:50:11.431Z,55.43
2019-01-04T05:52:15.201Z,48.87
2019-01-04T05:54:18.955Z,53.90
2019-01-04T05:56:22.963Z,50.87
2019-01-04T05:58:26.779Z,49.07
2019-01-04T06:00:30.552Z,44.67
2019-01-04T06:02:34.563Z,46.77
2019-01-04T06:04:38.351Z,51.23
2019-01-04T06:06:42.100Z,43.43
2019-01-04T06:08:46.098Z,39.33
2019-01-04T06:10:49.850Z,37.53
2019-01-04T06:12:53.873Z,41.63
2019-01-04T06:14:57.684Z,41.47
2019-01-04T06:17:01.542Z,42.60
2019-01-04T06:19:05.282Z,36.53
2019-01-04T06:21:09.028Z,32.30
2019-01-04T06:23:12.782Z,31.30
2019-01-04T06:25:16.819Z,31.33
2019-01-04T06:27:20.819Z,31.20
2019-01-04T06:29:24.562Z,38.03
2019-01-04T06:31:28.702Z,34.43
2019-01-04T06:33:32.474Z,36.13
2019-01-04T06:35:36.366Z,41.90
2019-01-04T06:37:40.117Z,36.20
2019-01-04T06:39:43.979Z,35.47
2019-01-04T06:41:47.726Z,30.77
2019-01-04T06:43:51.483Z,33.23
2019-01-04T06:45:55.226Z,33.03
2019-01-04T06:47:59.068Z,28.97
2019-01-04T06:50:02.838Z,39.43
2019-01-04T06:52:06.662Z,33.17
2019-01-04T06:54:47.203Z,46.70
2019-01-04T06:56:50.950Z,32.83
2019-01-04T06:58:54.711Z,36.67
2019-01-04T07:00:58.802Z,36.93
2019-01-04T07:03:02.550Z,38.43
2019-01-04T07:05:06.703Z,28.47
2019-01-04T07:07:10.441Z,30.70
2019-01-04T07:09:14.242Z,36.60
2019-01-04T07:11:17.991Z,37.47
2019-01-04T07:13:21.802Z,36.03
2019-01-04T07:15:25.629Z,46.30
2019-01-04T07:17:29.642Z,34.37
2019-01-04T07:19:33.656Z,44.40
2019-01-04T07:21:37.414Z,33.60
2019-01-04T07:23:41.181Z,38.70
2019-01-04T07:25:45.003Z,39.27
2019-01-04T07:27:48.818Z,39.07
2019-01-04T07:29:52.842Z,30.70
2019-01-04T07:31:56.602Z,31.73
2019-01-04T07:34:00.370Z,48.60
2019-01-04T07:36:04.190Z,51.07
2019-01-04T07:38:07.957Z,47.27
2019-01-04T07:40:11.971Z,38.43
2019-01-04T07:42:15.709Z,27.23
2019-01-04T07:44:19.465Z,29.37
2019-01-04T07:46:23.235Z,27.10
2019-01-04T07:48:27.222Z,34.37
2019-01-04T07:50:31.059Z,28.73
2019-01-04T07:52:34.826Z,24.80
2019-01-04T07:54:39.127Z,24.77
2019-01-04T07:56:42.997Z,32.63
2019-01-04T07:58:46.740Z,27.53
2019-01-04T08:00:50.569Z,27.40
2019-01-04T08:02:56.194Z,30.93
2019-01-04T08:05:00.283Z,31.27
2019-01-04T08:07:04.101Z,28.33
2019-01-04T08:09:07.922Z,26.77
2019-01-04T08:11:11.942Z,26.20
2019-01-04T08:13:15.934Z,23.93
2019-01-04T08:15:19.698Z,23.83
2019-01-04T08:17:23.524Z,29.50
2019-01-04T08:19:27.269Z,22.73
2019-01-04T08:21:31.034Z,15.33
2019-01-04T08:23:34.775Z,18.97
2019-01-04T08:25:38.670Z,17.20
2019-01-04T08:27:42.762Z,26.37
2019-01-04T08:29:46.523Z,18.60
2019-01-04T08:31:50.258Z,21.70
2019-01-04T08:33:54.351Z,12.73
2019-01-04T08:35:58.099Z,14.30
2019-01-04T08:38:01.911Z,14.00
2019-01-04T08:40:07.922Z,9.23
2019-01-04T08:42:11.690Z,16.23
2019-01-04T08:44:15.431Z,17.63
2019-01-04T08:46:19.225Z,11.10
2019-01-04T08:48:22.969Z,15.70
2019-01-04T08:50:26.789Z,25.20
2019-01-04T08:52:31.038Z,12.63
2019-01-04T08:54:34.814Z,7.80
2019-01-04T08:56:39.220Z,14.23
2019-01-04T08:58:42.968Z,9.87
2019-01-04T09:00:46.734Z,3.93
2019-01-04T09:02:50.481Z,11.63
2019-01-04T09:04:54.226Z,10.73
2019-01-04T09:06:57.972Z,8.17
2019-01-04T09:09:01.782Z,9.83
2019-01-04T09:11:05.810Z,6.13
2019-01-04T09:13:09.543Z,7.70
2019-01-04T09:15:13.571Z,10.87
2019-01-04T09:17:17.313Z,7.37
2019-01-04T09:19:21.059Z,14.90
2019-01-04T09:21:25.065Z,9.80
2019-01-04T09:23:28.800Z,8.83
2019-01-04T09:25:32.542Z,8.87
2019-01-04T09:27:36.359Z,9.73
2019-01-04T09:29:40.107Z,6.50
2019-01-04T09:31:43.939Z,12.63
2019-01-04T09:33:47.699Z,8.43
2019-01-04T09:35:51.445Z,7.60
2019-01-04T09:37:55.198Z,11.37
2019-01-04T09:39:59.165Z,8.43
2019-01-04T09:42:23.954Z,4.57
2019-01-04T09:44:27.785Z,7.87
2019-01-04T09:46:31.623Z,5.70
2019-01-04T09:48:35.438Z,24.53
2019-01-04T09:50:39.245Z,7.10
2019-01-04T09:52:43.020Z,8.47
2019-01-04T09:54:46.842Z,12.23
2019-01-04T09:56:50.607Z,15.20
2019-01-04T09:58:54.347Z,7.17
2019-01-04T10:00:58.086Z,13.43
2019-01-04T10:03:02.107Z,5.57
2019-01-04T10:05:06.035Z,6.80
2019-01-04T10:07:09.775Z,14.03
2019-01-04T10:09:13.516Z,11.70
2019-01-04T10:11:17.336Z,10.70
2019-01-04T10:13:21.119Z,13.50
2019-01-04T10:15:24.859Z,18.87
2019-01-04T10:17:28.840Z,4.03
2019-01-04T10:19:32.574Z,4.03
2019-01-04T10:21:36.650Z,12.13
2019-01-04T10:23:40.411Z,3.33
2019-01-04T10:25:44.154Z,6.50
2019-01-04T10:27:47.905Z,2.67
2019-01-04T10:29:51.709Z,4.70
2019-01-04T10:31:55.686Z,6.33
2019-01-04T10:33:59.690Z,10.60
2019-01-04T10:36:03.711Z,2.47
2019-01-04T10:38:07.462Z,4.43
2019-01-04T10:40:11.410Z,3.87
2019-01-04T10:42:15.254Z,7.30
2019-01-04T10:44:19.259Z,5.13
2019-01-04T10:46:22.613Z,4.80
2019-01-04T10:48:26.597Z,9.50
2019-01-04T10:50:31.288Z,5.47
2019-01-04T10:52:35.054Z,2.43
2019-01-04T10:54:38.781Z,3.60
2019-01-04T10:56:42.765Z,2.30
2019-01-04T10:58:46.519Z,5.40
2019-01-04T11:00:50.330Z,5.50
2019-01-04T11:02:54.077Z,13.70
2019-01-04T11:04:57.827Z,5.00
2019-01-04T11:07:01.577Z,20.33
2019-01-04T11:09:09.167Z,6.17
2019-01-04T11:11:12.930Z,6.63
2019-01-04T11:13:16.673Z,7.90
2019-01-04T11:15:20.686Z,7.50
2019-01-04T11:17:24.429Z,12.40
2019-01-04T11:19:28.206Z,9.40
2019-01-04T11:21:31.959Z,7.70
2019-01-04T11:24:05.947Z,8.40
2019-01-04T11:26:37.374Z,16.37
2019-01-04T11:29:09.886Z,17.70
2019-01-04T11:31:36.899Z,26.30
2019-01-04T11:34:31.011Z,13.53
2019-01-04T11:37:15.530Z,11.70
2019-01-04T11:39:40.030Z,12.73
2019-01-04T11:42:15.270Z,20.30
2019-01-04T11:44:31.559Z,24.30
2019-01-04T11:47:07.658Z,10.03
2019-01-04T11:49:53.225Z,18.93
2019-01-04T11:52:31.430Z,12.10
2019-01-04T11:54:35.212Z,17.33
2019-01-04T11:56:38.967Z,17.00
2019-01-04T11:58:42.698Z,16.37
2019-01-04T12:00:46.442Z,11.53
2019-01-04T12:02:50.190Z,11.20
2019-01-04T12:04:53.950Z,15.50
2019-01-04T12:06:57.702Z,14.30
2019-01-04T12:09:01.686Z,20.63
2019-01-04T12:11:05.513Z,13.03
2019-01-04T12:13:09.264Z,19.87
2019-01-04T12:15:13.328Z,15.43
2019-01-04T12:17:17.306Z,15.23
2019-01-04T12:19:21.058Z,19.50
2019-01-04T12:21:24.895Z,17.57
2019-01-04T12:23:29.177Z,19.03
2019-01-04T12:25:33.173Z,13.87
2019-01-04T12:27:37.163Z,12.50
2019-01-04T12:29:40.911Z,17.23
2019-01-04T12:31:44.672Z,13.40
2019-01-04T12:33:48.431Z,9.60
2019-01-04T12:35:52.167Z,11.00
2019-01-04T12:37:55.922Z,11.03
2019-01-04T12:39:59.656Z,10.97
2019-01-04T12:42:03.795Z,15.47
2019-01-04T12:44:07.570Z,21.80
2019-01-04T12:46:11.573Z,18.27
2019-01-04T12:48:15.570Z,20.90
2019-01-04T12:50:19.312Z,18.47
2019-01-04T12:52:23.070Z,20.77
2019-01-04T12:54:26.815Z,10.63
2019-01-04T12:56:30.556Z,18.23
2019-01-04T12:58:34.382Z,20.33
2019-01-04T13:00:38.219Z,9.20
2019-01-04T13:02:42.221Z,15.40
2019-01-04T13:04:45.964Z,12.97
2019-01-04T13:06:49.945Z,18.77
2019-01-04T13:08:54.218Z,17.40
2019-01-04T13:10:58.211Z,18.27
2019-01-04T13:13:02.221Z,14.80
2019-01-04T13:15:06.611Z,15.70
2019-01-04T13:17:10.501Z,22.90
2019-01-04T13:19:14.314Z,20.87
2019-01-04T13:21:18.074Z,18.10
2019-01-04T13:23:22.067Z,20.97
2019-01-04T13:25:25.830Z,18.77
2019-01-04T13:27:29.649Z,23.23
2019-01-04T13:29:33.470Z,21.77
2019-01-04T13:31:37.247Z,14.60
2019-01-04T13:33:40.995Z,13.67
2019-01-04T13:35:44.738Z,30.07
2019-01-04T13:37:48.719Z,9.40
2019-01-04T13:39:52.534Z,15.00
2019-01-04T13:41:56.275Z,17.93
2019-01-04T13:44:00.033Z,15.70
2019-01-04T13:46:03.911Z,18.70
2019-01-04T13:48:07.649Z,15.27
2019-01-04T13:50:11.715Z,22.50
2019-01-04T13:52:15.472Z,26.43
2019-01-04T13:54:19.471Z,17.90
2019-01-04T13:56:23.223Z,11.90
2019-01-04T13:58:27.043Z,15.20
2019-01-04T14:00:30.818Z,22.27
2019-01-04T14:02:34.566Z,16.20
2019-01-04T14:04:38.330Z,15.83
2019-01-04T14:06:42.078Z,20.63
2019-01-04T14:08:45.850Z,24.07
2019-01-04T14:10:49.946Z,31.90
2019-01-04T14:12:54.022Z,17.97
2019-01-04T14:14:57.778Z,44.63
2019-01-04T14:17:01.541Z,20.93
2019-01-04T14:19:05.278Z,17.80
2019-01-04T14:21:09.031Z,23.17
2019-01-04T14:23:12.771Z,17.73
2019-01-04T14:25:16.526Z,19.63
2019-01-04T14:27:20.591Z,15.40
2019-01-04T14:29:24.406Z,26.67
2019-01-04T14:31:28.176Z,22.23
2019-01-04T14:33:31.927Z,24.70
2019-01-04T14:35:35.698Z,20.43
2019-01-04T14:37:39.433Z,17.20
2019-01-04T14:39:43.705Z,18.57
2019-01-04T14:41:47.462Z,19.50
2019-01-04T14:43:51.194Z,25.43
2019-01-04T14:45:54.938Z,26.13
2019-01-04T14:47:58.691Z,19.83
2019-01-04T14:50:02.514Z,25.07
2019-01-04T14:52:06.566Z,24.00
2019-01-04T14:54:10.630Z,23.73
2019-01-04T14:56:14.378Z,34.67
2019-01-04T14:58:18.382Z,14.40
2019-01-04T15:00:22.638Z,21.80
2019-01-04T15:02:26.634Z,19.43
2019-01-04T15:04:30.423Z,21.33
2019-01-04T15:06:34.249Z,13.10
2019-01-04T15:08:37.995Z,18.17
2019-01-04T15:10:41.759Z,16.40
2019-01-04T15:12:45.574Z,19.53
2019-01-04T15:14:49.314Z,23.70
2019-01-04T15:16:53.146Z,24.50
2019-01-04T15:18:56.894Z,19.93
2019-01-04T15:21:00.639Z,32.00
2019-01-04T15:23:04.398Z,21.03
2019-01-04T15:25:08.290Z,32.03
2019-01-04T15:27:12.058Z,21.23
2019-01-04T15:29:16.138Z,41.90
2019-01-04T15:31:20.138Z,25.20
2019-01-04T15:33:23.886Z,16.80
2019-01-04T15:35:27.850Z,22.80
2019-01-04T15:37:31.862Z,26.70
2019-01-04T15:39:35.606Z,26.27
2019-01-04T15:41:39.351Z,24.80
2019-01-04T15:43:43.099Z,22.10
2019-01-04T15:45:46.855Z,27.50
2019-01-04T15:47:50.664Z,41.33
2019-01-04T15:49:54.419Z,34.30
2019-01-04T15:51:58.259Z,23.50
2019-01-04T15:54:02.032Z,22.90
2019-01-04T15:56:05.873Z,16.30
2019-01-04T15:58:09.623Z,25.00
2019-01-04T16:00:13.798Z,21.73
2019-01-04T16:02:17.580Z,32.03
2019-01-04T16:04:21.826Z,40.07
2019-01-04T16:06:26.113Z,39.03
2019-01-04T16:08:29.924Z,31.97
2019-01-04T16:10:33.674Z,27.57
2019-01-04T16:12:37.518Z,24.87
2019-01-04T16:14:41.268Z,25.53
2019-01-04T16:16:45.318Z,20.73
2019-01-04T16:18:49.071Z,28.20
2019-01-04T16:20:53.150Z,31.73
2019-01-04T16:22:57.161Z,35.90
2019-01-04T16:25:00.893Z,28.67
2019-01-04T16:27:04.966Z,25.23
2019-01-04T16:29:08.726Z,22.27
2019-01-04T16:31:12.522Z,25.13
2019-01-04T16:33:16.290Z,28.93
2019-01-04T16:35:20.405Z,27.10
2019-01-04T16:37:24.420Z,23.63
2019-01-04T16:39:28.433Z,28.90
2019-01-04T16:41:32.498Z,32.53
2019-01-04T16:43:36.490Z,23.43
2019-01-04T16:45:41.170Z,26.97
2019-01-04T16:47:44.989Z,22.80
2019-01-04T16:49:48.854Z,29.27
2019-01-04T16:51:52.605Z,25.67
2019-01-04T16:53:56.359Z,39.23
2019-01-04T16:56:00.384Z,29.90
2019-01-04T16:58:04.698Z,28.13
2019-01-04T17:00:10.542Z,16.47
2019-01-04T17:02:14.369Z,29.10
2019-01-04T17:04:18.123Z,25.67
2019-01-04T17:06:21.891Z,26.10
2019-01-04T17:08:25.719Z,21.80
2019-01-04T17:10:29.499Z,25.00
2019-01-04T17:12:32.837Z,54.17
2019-01-04T17:14:37.041Z,51.10
2019-01-04T17:16:40.779Z,39.27
2019-01-04T17:18:44.521Z,26.73
2019-01-04T17:20:48.279Z,34.57
2019-01-04T17:22:52.266Z,16.93
2019-01-04T17:24:56.027Z,28.13
2019-01-04T17:26:59.779Z,24.23
2019-01-04T17:29:03.611Z,33.17
2019-01-04T17:31:07.370Z,35.13
2019-01-04T17:33:10.969Z,30.87
2019-01-04T17:35:14.811Z,33.20
2019-01-04T17:37:18.642Z,24.57
2019-01-04T17:39:22.622Z,30.57
2019-01-04T17:41:26.616Z,18.93
2019-01-04T17:43:31.788Z,27.57
2019-01-04T17:45:35.550Z,40.17
2019-01-04T17:47:39.723Z,29.60
2019-01-04T17:49:43.826Z,26.03
2019-01-04T17:51:47.582Z,33.23
2019-01-04T17:53:51.331Z,23.13
2019-01-04T17:55:55.105Z,34.60
2019-01-04T17:57:58.839Z,34.10
2019-01-04T18:00:02.665Z,27.97
2019-01-04T18:02:06.562Z,34.40
2019-01-04T18:04:10.307Z,29.57
2019-01-04T18:06:14.062Z,38.03
2019-01-04T18:08:18.063Z,40.27
2019-01-04T18:10:22.066Z,32.33
2019-01-04T18:12:26.150Z,33.27
2019-01-04T18:14:29.897Z,31.27
2019-01-04T18:16:33.734Z,20.83
2019-01-04T18:18:37.482Z,19.80
2019-01-04T18:20:41.263Z,20.80
2019-01-04T18:22:45.194Z,33.97
2019-01-04T18:24:48.974Z,36.40
2019-01-04T18:26:53.052Z,34.47
2019-01-04T18:28:59.210Z,29.17
2019-01-04T18:31:03.224Z,23.63
2019-01-04T18:33:08.463Z,42.83
2019-01-04T18:35:12.606Z,25.50
2019-01-04T18:37:16.387Z,25.60
2019-01-04T18:39:20.242Z,35.90
2019-01-04T18:41:24.618Z,33.00
2019-01-04T18:43:30.339Z,31.93
2019-01-04T18:45:34.589Z,32.60
2019-01-04T18:47:39.489Z,37.73
2019-01-04T18:49:43.393Z,39.47
2019-01-04T18:51:47.490Z,38.93
2019-01-04T18:53:53.538Z,25.07
2019-01-04T18:55:57.603Z,32.00
2019-01-04T18:58:01.381Z,27.53
2019-01-04T19:00:06.114Z,30.43
2019-01-04T19:02:09.863Z,27.97
2019-01-04T19:04:13.849Z,32.40
2019-01-04T19:06:17.630Z,33.20
2019-01-04T19:08:21.463Z,25.40
2019-01-04T19:10:25.332Z,35.00
2019-01-04T19:12:29.074Z,39.20
2019-01-04T19:14:34.112Z,44.43
2019-01-04T19:16:37.850Z,39.73
2019-01-04T19:18:41.617Z,46.07
2019-01-04T19:20:45.361Z,34.90
2019-01-04T19:22:49.118Z,32.40
2019-01-04T19:24:52.960Z,31.93
2019-01-04T19:26:56.779Z,36.93
2019-01-04T19:29:00.526Z,37.07
2019-01-04T19:31:04.346Z,27.80
2019-01-04T19:33:08.334Z,45.10
2019-01-04T19:35:12.342Z,37.17
2019-01-04T19:37:16.094Z,34.63
2019-01-04T19:39:19.858Z,29.60
2019-01-04T19:41:23.863Z,38.43
2019-01-04T19:43:27.627Z,32.30
2019-01-04T19:45:31.654Z,31.93
2019-01-04T19:47:35.675Z,31.37
2019-01-04T19:49:39.671Z,30.00
2019-01-04T19:51:43.713Z,48.33
2019-01-04T19:53:47.471Z,26.83
2019-01-04T19:55:51.241Z,28.03
2019-01-04T19:57:55.103Z,32.87
2019-01-04T19:59:59.106Z,55.90
2019-01-04T20:02:02.870Z,33.00
2019-01-04T20:04:06.955Z,36.83
2019-01-04T20:07:04.966Z,27.10
2019-01-04T20:10:15.216Z,31.00
2019-01-04T20:13:25.083Z,27.53
2019-01-04T20:16:14.522Z,36.10
2019-01-04T20:18:46.362Z,21.70
2019-01-04T20:21:21.539Z,27.00
2019-01-04T20:23:42.828Z,31.27
2019-01-04T20:26:04.454Z,32.43
2019-01-04T20:28:27.418Z,28.07
2019-01-04T20:30:50.018Z,33.80
2019-01-04T20:33:10.106Z,36.37
2019-01-04T20:35:33.284Z,35.07
2019-01-04T20:37:54.768Z,25.90
2019-01-04T20:40:16.328Z,33.20
2019-01-04T20:42:45.251Z,49.53
2019-01-04T20:45:23.394Z,28.30
2019-01-04T20:47:44.922Z,24.93
2019-01-04T20:50:04.275Z,28.93
2019-01-04T20:52:20.188Z,30.50
2019-01-04T20:54:43.124Z,38.80
2019-01-04T20:56:59.558Z,37.80
2019-01-04T20:59:19.307Z,34.73
2019-01-04T21:01:45.038Z,38.57
2019-01-04T21:04:02.872Z,24.40
2019-01-04T21:06:28.823Z,40.00
2019-01-04T21:08:52.551Z,24.27
2019-01-04T21:11:15.412Z,32.20
2019-01-04T21:13:38.277Z,25.67
2019-01-04T21:15:56.316Z,30.63
2019-01-04T21:18:25.291Z,21.57
2019-01-04T21:20:48.465Z,24.00
2019-01-04T21:23:23.768Z,30.37
2019-01-04T21:25:45.313Z,21.00
2019-01-04T21:28:08.771Z,23.20
2019-01-04T21:30:50.188Z,25.70
2019-01-04T21:33:18.280Z,33.83
2019-01-04T21:35:39.718Z,28.23
2019-01-04T21:37:54.674Z,30.73
2019-01-04T21:40:19.287Z,22.43
2019-01-04T21:42:51.482Z,20.27
2019-01-04T21:45:20.633Z,31.53
2019-01-04T21:47:46.516Z,27.00
2019-01-04T21:50:21.478Z,30.37
2019-01-04T21:52:44.798Z,21.97
2019-01-04T21:55:01.601Z,21.57
2019-01-04T21:57:42.462Z,16.73
2019-01-04T22:00:03.791Z,29.97
2019-01-04T22:02:19.309Z,17.03
2019-01-04T22:04:46.282Z,22.93
2019-01-04T22:07:18.117Z,22.30
2019-01-04T22:09:39.399Z,23.43
2019-01-04T22:12:00.886Z,22.57
2019-01-04T22:14:22.601Z,19.27
2019-01-04T22:16:44.203Z,21.10
2019-01-04T22:19:18.446Z,27.70
2019-01-04T22:21:42.635Z,17.93
2019-01-04T22:24:20.738Z,14.07
2019-01-04T22:26:56.726Z,23.53
2019-01-04T22:29:17.290Z,18.63
2019-01-04T22:31:40.103Z,20.77
2019-01-04T22:34:13.335Z,19.83
2019-01-04T22:37:02.524Z,20.27
2019-01-04T22:39:32.006Z,22.83
2019-01-04T22:42:10.999Z,19.93
2019-01-04T22:44:41.825Z,8.37
2019-01-04T22:46:55.551Z,25.23
2019-01-04T22:49:27.624Z,20.57
2019-01-04T22:51:49.242Z,35.70
2019-01-04T22:54:10.936Z,25.40
2019-01-04T22:56:32.490Z,21.93
2019-01-04T22:58:46.332Z,22.60
2019-01-04T23:01:16.364Z,16.23
2019-01-04T23:03:48.590Z,19.43
2019-01-04T23:06:09.913Z,24.17
2019-01-04T23:08:31.603Z,24.87
2019-01-04T23:10:54.225Z,18.73
2019-01-04T23:13:15.767Z,18.50
2019-01-04T23:15:37.446Z,10.80
2019-01-04T23:17:52.402Z,14.40
2019-01-04T23:20:13.898Z,20.33
2019-01-04T23:22:48.838Z,24.43
2019-01-04T23:25:07.879Z,23.07
2019-01-04T23:27:31.230Z,15.30
2019-01-04T23:29:55.647Z,16.60
2019-01-04T23:32:18.491Z,13.70
2019-01-04T23:34:40.038Z,10.70
2019-01-04T23:37:01.829Z,13.97
2019-01-04T23:39:34.483Z,14.77
2019-01-04T23:42:12.644Z,9.33
2019-01-04T23:44:34.109Z,11.87
2019-01-04T23:46:51.986Z,14.50
2019-01-04T23:49:16.695Z,26.73
2019-01-04T23:51:38.097Z,23.00
2019-01-04T23:53:59.763Z,19.57
2019-01-04T23:56:32.758Z,14.23
2019-01-04T23:58:49.166Z,13.47
